Aérodrome :
LOGIN :

S'inscrire | Disclaimer

   EN    FR    IT 

 










Légende :    VFR   VFR Marginal   IFR   IFR Intensif   IFR Très Intensif
Visi : 
Plafond : 
>= 8 km
>= 3000ft
5 à 8 km
1000 à 3000 ft
1500m à 5 km
500 à 1000 ft
800 à 1500m
200 à 500 ft
< 800m
< 200 ft
Symboles :   Orages  Brouillard  Fortes neiges  Fortes précipitations  Vent > 20 kt
SIGMETs :   Divers  Orages  Givrage  Turbulence  Onde Orograph.  Cendres Volcan.







- Altitude de l'aérodrome : 915 ft
- Code IATA : LUG


LSZA - Lugano

DERNIER METAR :
  • 241920Z VRB02KT 9999 FEW060 BKN130 19/15 Q1012 NOSIG

METARs EXPIRÉS :
  • 241850Z 19003KT 9999 FEW060 BKN190 20/14 Q1012 NOSIG
  • 241820Z VRB03KT 9999 FEW060 BKN190 20/14 Q1012 NOSIG
  • 241750Z VRB02KT 9999 FEW060 BKN190 21/14 Q1012 NOSIG
  • 241720Z 15004KT 120V190 9999 FEW060 BKN190 22/14 Q1011 NOSIG
  • 241650Z 20004KT 160V230 9999 FEW060 BKN190 23/15 Q1011 NOSIG

TAF TAF LSZA
Valide du 24 à 15h jusqu'au 25 à 00h UTC


241425Z 2415/2424 19006KT 9999 FEW050 SCT060
TEMPO 2415/2421 SHRA FEW050TCU
PROB40
TEMPO 2415/2420 TSRA FEW050CB
ATIS : +41 22 417 40 88
Pas de NOTAMs connus pour ce terrain.



MET'MAP, la Météo Aéronautique d'un coup d'oeil ! - Copyright ORBIFLY Décembre 2007 - Disclaimer

ORBIFLY MET'MAP TEAM :

Programmation & Développement : Alexandra Zaïnal
Conception & Développement : Baudouin d'Aumeries
Co-Programmation & Développement : Marc-Olivier Méhu
Soutien technique & logistique : Manuel Goepfert

Contact : metmap@orbifly.com




SOURCES & CREDITS :

   NOAA